Terminal Aerodrome Forecast
Issued by NWS New Orleans/Baton Rouge, LA

Home | Current Version | Previous Version | Text Only | Print | Product List | Glossary On
Versions: 1 2 3 4 5 6 7 8 9 10 11 12 13 14 15 16
000
FTUS44 KLIX 262320
TAFNEW
TAF
KNEW 262320Z 2700/2724 16011KT P6SM SKC
     FM270200 17009KT P6SM SCT250
     FM271000 19007KT P6SM BKN025
     FM271400 20010KT P6SM SCT030 SCT050=

USA.gov is the U.S. government's official web portal to all federal, state and local government web resources and services.